sensor_id;sensor_type;location;lat;lon;timestamp;temperature;humidity
4896;DHT22;2463;49.948;8.472;2024-02-26T00:01:54;8.50;99.90
4896;DHT22;2463;49.948;8.472;2024-02-26T00:04:21;8.40;99.90
4896;DHT22;2463;49.948;8.472;2024-02-26T00:06:48;8.40;99.90
4896;DHT22;2463;49.948;8.472;2024-02-26T00:09:18;8.40;99.90
4896;DHT22;2463;49.948;8.472;2024-02-26T00:11:44;8.50;99.90
4896;DHT22;2463;49.948;8.472;2024-02-26T00:14:11;8.50;99.90
4896;DHT22;2463;49.948;8.472;2024-02-26T00:16:40;8.50;99.90
4896;DHT22;2463;49.948;8.472;2024-02-26T00:19:07;8.50;99.90
4896;DHT22;2463;49.948;8.472;2024-02-26T00:21:34;8.50;99.90
4896;DHT22;2463;49.948;8.472;2024-02-26T00:24:01;8.50;99.90
4896;DHT22;2463;49.948;8.472;2024-02-26T00:26:28;8.40;99.90
4896;DHT22;2463;49.948;8.472;2024-02-26T00:28:54;8.40;99.90
4896;DHT22;2463;49.948;8.472;2024-02-26T00:31:21;8.40;99.90
4896;DHT22;2463;49.948;8.472;2024-02-26T00:33:47;8.40;99.90
4896;DHT22;2463;49.948;8.472;2024-02-26T00:36:14;8.40;99.90
4896;DHT22;2463;49.948;8.472;2024-02-26T00:38:41;8.40;99.90
4896;DHT22;2463;49.948;8.472;2024-02-26T00:41:09;8.40;99.90
4896;DHT22;2463;49.948;8.472;2024-02-26T00:43:36;8.40;99.90
4896;DHT22;2463;49.948;8.472;2024-02-26T00:46:04;8.40;99.90
4896;DHT22;2463;49.948;8.472;2024-02-26T00:48:31;8.40;99.90
4896;DHT22;2463;49.948;8.472;2024-02-26T00:50:58;8.40;99.90
4896;DHT22;2463;49.948;8.472;2024-02-26T00:53:24;8.30;99.90
4896;DHT22;2463;49.948;8.472;2024-02-26T00:55:51;8.30;99.90
4896;DHT22;2463;49.948;8.472;2024-02-26T00:58:18;8.40;99.90
4896;DHT22;2463;49.948;8.472;2024-02-26T01:00:45;8.40;99.90
4896;DHT22;2463;49.948;8.472;2024-02-26T01:03:12;8.40;99.90
4896;DHT22;2463;49.948;8.472;2024-02-26T01:05:38;8.30;99.90
4896;DHT22;2463;49.948;8.472;2024-02-26T01:08:06;8.30;99.90
4896;DHT22;2463;49.948;8.472;2024-02-26T01:10:32;8.40;99.90
4896;DHT22;2463;49.948;8.472;2024-02-26T01:13:00;8.40;99.90
4896;DHT22;2463;49.948;8.472;2024-02-26T01:15:27;8.40;99.90
4896;DHT22;2463;49.948;8.472;2024-02-26T01:17:53;8.40;99.90
4896;DHT22;2463;49.948;8.472;2024-02-26T01:20:20;8.40;99.90
4896;DHT22;2463;49.948;8.472;2024-02-26T01:22:47;8.40;99.90
4896;DHT22;2463;49.948;8.472;2024-02-26T01:25:14;8.40;99.90
4896;DHT22;2463;49.948;8.472;2024-02-26T01:27:42;8.40;99.90
4896;DHT22;2463;49.948;8.472;2024-02-26T01:30:11;8.40;99.90
4896;DHT22;2463;49.948;8.472;2024-02-26T01:32:37;8.40;99.90
4896;DHT22;2463;49.948;8.472;2024-02-26T01:35:04;8.40;99.90
4896;DHT22;2463;49.948;8.472;2024-02-26T01:37:33;8.40;99.90
4896;DHT22;2463;49.948;8.472;2024-02-26T01:40:00;8.40;99.90
4896;DHT22;2463;49.948;8.472;2024-02-26T01:42:30;8.40;99.90
4896;DHT22;2463;49.948;8.472;2024-02-26T01:45:01;8.40;99.90
4896;DHT22;2463;49.948;8.472;2024-02-26T01:47:29;8.40;99.90
4896;DHT22;2463;49.948;8.472;2024-02-26T01:49:56;8.40;99.90
4896;DHT22;2463;49.948;8.472;2024-02-26T01:52:23;8.40;99.90
4896;DHT22;2463;49.948;8.472;2024-02-26T01:54:50;8.40;99.90
4896;DHT22;2463;49.948;8.472;2024-02-26T01:57:17;8.40;99.90
4896;DHT22;2463;49.948;8.472;2024-02-26T01:59:44;8.40;99.90
4896;DHT22;2463;49.948;8.472;2024-02-26T02:02:11;8.50;99.90
4896;DHT22;2463;49.948;8.472;2024-02-26T02:04:39;8.40;99.90
4896;DHT22;2463;49.948;8.472;2024-02-26T02:07:06;8.40;99.90
4896;DHT22;2463;49.948;8.472;2024-02-26T02:09:33;8.40;99.90
4896;DHT22;2463;49.948;8.472;2024-02-26T02:12:00;8.50;99.90
4896;DHT22;2463;49.948;8.472;2024-02-26T02:14:27;8.50;99.90
4896;DHT22;2463;49.948;8.472;2024-02-26T02:16:54;8.50;99.90
4896;DHT22;2463;49.948;8.472;2024-02-26T02:19:20;8.50;99.90
4896;DHT22;2463;49.948;8.472;2024-02-26T02:21:47;8.50;99.90
4896;DHT22;2463;49.948;8.472;2024-02-26T02:24:14;8.60;99.90
4896;DHT22;2463;49.948;8.472;2024-02-26T02:26:41;8.50;99.90
4896;DHT22;2463;49.948;8.472;2024-02-26T02:29:08;8.60;99.90
4896;DHT22;2463;49.948;8.472;2024-02-26T02:31:36;8.60;99.90
4896;DHT22;2463;49.948;8.472;2024-02-26T02:34:02;8.60;99.90
4896;DHT22;2463;49.948;8.472;2024-02-26T02:36:29;8.60;99.90
4896;DHT22;2463;49.948;8.472;2024-02-26T02:38:57;8.60;99.90
4896;DHT22;2463;49.948;8.472;2024-02-26T02:41:23;8.60;99.90
4896;DHT22;2463;49.948;8.472;2024-02-26T02:43:50;8.60;99.90
4896;DHT22;2463;49.948;8.472;2024-02-26T02:46:17;8.60;99.90
4896;DHT22;2463;49.948;8.472;2024-02-26T02:48:43;8.60;99.90
4896;DHT22;2463;49.948;8.472;2024-02-26T02:51:11;8.60;99.90
4896;DHT22;2463;49.948;8.472;2024-02-26T02:53:38;8.60;99.90
4896;DHT22;2463;49.948;8.472;2024-02-26T02:56:05;8.50;99.90
4896;DHT22;2463;49.948;8.472;2024-02-26T02:58:31;8.60;99.90
4896;DHT22;2463;49.948;8.472;2024-02-26T03:00:58;8.60;99.90
4896;DHT22;2463;49.948;8.472;2024-02-26T03:03:26;8.50;99.90
4896;DHT22;2463;49.948;8.472;2024-02-26T03:05:55;8.50;99.90
4896;DHT22;2463;49.948;8.472;2024-02-26T03:08:22;8.50;99.90
4896;DHT22;2463;49.948;8.472;2024-02-26T03:10:48;8.40;99.90
4896;DHT22;2463;49.948;8.472;2024-02-26T03:13:15;8.40;99.90
4896;DHT22;2463;49.948;8.472;2024-02-26T03:15:42;8.50;99.90
4896;DHT22;2463;49.948;8.472;2024-02-26T03:18:08;8.40;99.90
4896;DHT22;2463;49.948;8.472;2024-02-26T03:20:35;8.50;99.90
4896;DHT22;2463;49.948;8.472;2024-02-26T03:23:03;8.40;99.90
4896;DHT22;2463;49.948;8.472;2024-02-26T03:25:30;8.40;99.90
4896;DHT22;2463;49.948;8.472;2024-02-26T03:27:56;8.40;99.90
4896;DHT22;2463;49.948;8.472;2024-02-26T03:30:23;8.50;99.90
4896;DHT22;2463;49.948;8.472;2024-02-26T03:32:50;8.50;99.90
4896;DHT22;2463;49.948;8.472;2024-02-26T03:35:17;8.50;99.90
4896;DHT22;2463;49.948;8.472;2024-02-26T03:37:43;8.50;99.90
4896;DHT22;2463;49.948;8.472;2024-02-26T03:40:12;8.50;99.90
4896;DHT22;2463;49.948;8.472;2024-02-26T03:42:40;8.50;99.90
4896;DHT22;2463;49.948;8.472;2024-02-26T03:45:07;8.60;99.90
4896;DHT22;2463;49.948;8.472;2024-02-26T03:47:38;8.50;99.90
4896;DHT22;2463;49.948;8.472;2024-02-26T03:50:07;8.50;99.90
4896;DHT22;2463;49.948;8.472;2024-02-26T03:52:34;8.40;99.90
4896;DHT22;2463;49.948;8.472;2024-02-26T03:55:00;8.40;99.90
4896;DHT22;2463;49.948;8.472;2024-02-26T03:57:27;8.40;99.90
4896;DHT22;2463;49.948;8.472;2024-02-26T03:59:53;8.40;99.90
4896;DHT22;2463;49.948;8.472;2024-02-26T04:02:20;8.40;99.90
4896;DHT22;2463;49.948;8.472;2024-02-26T04:04:47;8.30;99.90
4896;DHT22;2463;49.948;8.472;2024-02-26T04:07:14;8.20;99.90
4896;DHT22;2463;49.948;8.472;2024-02-26T04:09:41;8.30;99.90
4896;DHT22;2463;49.948;8.472;2024-02-26T04:12:08;8.30;99.90
4896;DHT22;2463;49.948;8.472;2024-02-26T04:14:35;8.20;99.90
4896;DHT22;2463;49.948;8.472;2024-02-26T04:17:03;8.30;99.90
4896;DHT22;2463;49.948;8.472;2024-02-26T04:19:29;8.20;99.90
4896;DHT22;2463;49.948;8.472;2024-02-26T04:21:56;8.20;99.90
4896;DHT22;2463;49.948;8.472;2024-02-26T04:24:23;8.30;99.90
4896;DHT22;2463;49.948;8.472;2024-02-26T04:26:50;8.20;99.90
4896;DHT22;2463;49.948;8.472;2024-02-26T04:29:16;8.10;99.90
4896;DHT22;2463;49.948;8.472;2024-02-26T04:31:43;8.10;99.90
4896;DHT22;2463;49.948;8.472;2024-02-26T04:34:09;8.10;99.90
4896;DHT22;2463;49.948;8.472;2024-02-26T04:36:40;8.10;99.90
4896;DHT22;2463;49.948;8.472;2024-02-26T04:39:06;8.10;99.90
4896;DHT22;2463;49.948;8.472;2024-02-26T04:41:33;8.10;99.90
4896;DHT22;2463;49.948;8.472;2024-02-26T04:44:00;8.00;99.90
4896;DHT22;2463;49.948;8.472;2024-02-26T04:46:27;8.00;99.90
4896;DHT22;2463;49.948;8.472;2024-02-26T04:48:54;8.00;99.90
4896;DHT22;2463;49.948;8.472;2024-02-26T04:51:23;7.90;99.90
4896;DHT22;2463;49.948;8.472;2024-02-26T04:53:50;7.90;99.90
4896;DHT22;2463;49.948;8.472;2024-02-26T04:56:17;7.80;99.90
4896;DHT22;2463;49.948;8.472;2024-02-26T04:58:44;7.80;99.90
4896;DHT22;2463;49.948;8.472;2024-02-26T05:01:11;7.80;99.90
4896;DHT22;2463;49.948;8.472;2024-02-26T05:03:38;7.80;99.90
4896;DHT22;2463;49.948;8.472;2024-02-26T05:06:05;7.80;99.90
4896;DHT22;2463;49.948;8.472;2024-02-26T05:08:32;7.90;99.90
4896;DHT22;2463;49.948;8.472;2024-02-26T05:11:00;7.90;99.90
4896;DHT22;2463;49.948;8.472;2024-02-26T05:13:27;7.80;99.90
4896;DHT22;2463;49.948;8.472;2024-02-26T05:15:54;7.80;99.90
4896;DHT22;2463;49.948;8.472;2024-02-26T05:18:21;7.70;99.90
4896;DHT22;2463;49.948;8.472;2024-02-26T05:20:49;7.70;99.90
4896;DHT22;2463;49.948;8.472;2024-02-26T05:23:15;7.20;99.90
4896;DHT22;2463;49.948;8.472;2024-02-26T05:25:42;7.70;99.90
4896;DHT22;2463;49.948;8.472;2024-02-26T05:28:09;7.60;99.90
4896;DHT22;2463;49.948;8.472;2024-02-26T05:30:35;7.60;99.90
4896;DHT22;2463;49.948;8.472;2024-02-26T05:33:02;7.70;99.90
4896;DHT22;2463;49.948;8.472;2024-02-26T05:35:29;7.60;99.90
4896;DHT22;2463;49.948;8.472;2024-02-26T05:37:56;7.60;99.90
4896;DHT22;2463;49.948;8.472;2024-02-26T05:40:22;7.60;99.90
4896;DHT22;2463;49.948;8.472;2024-02-26T05:42:49;7.70;99.90
4896;DHT22;2463;49.948;8.472;2024-02-26T05:45:16;7.70;99.90
4896;DHT22;2463;49.948;8.472;2024-02-26T05:47:43;7.70;99.90
4896;DHT22;2463;49.948;8.472;2024-02-26T05:50:10;7.60;99.90
4896;DHT22;2463;49.948;8.472;2024-02-26T05:52:37;7.60;99.90
4896;DHT22;2463;49.948;8.472;2024-02-26T05:55:07;7.60;99.90
4896;DHT22;2463;49.948;8.472;2024-02-26T05:57:34;7.50;99.90
4896;DHT22;2463;49.948;8.472;2024-02-26T06:00:01;7.50;99.90
4896;DHT22;2463;49.948;8.472;2024-02-26T06:02:30;7.50;99.90
4896;DHT22;2463;49.948;8.472;2024-02-26T06:04:58;7.50;99.90
4896;DHT22;2463;49.948;8.472;2024-02-26T06:07:24;7.40;99.90
4896;DHT22;2463;49.948;8.472;2024-02-26T06:09:51;7.30;99.90
4896;DHT22;2463;49.948;8.472;2024-02-26T06:12:18;7.30;99.90
4896;DHT22;2463;49.948;8.472;2024-02-26T06:14:44;7.20;99.90
4896;DHT22;2463;49.948;8.472;2024-02-26T06:17:11;7.30;99.90
4896;DHT22;2463;49.948;8.472;2024-02-26T06:19:38;7.20;99.90
4896;DHT22;2463;49.948;8.472;2024-02-26T06:22:04;7.20;99.90
4896;DHT22;2463;49.948;8.472;2024-02-26T06:24:31;7.20;99.90
4896;DHT22;2463;49.948;8.472;2024-02-26T06:26:58;7.20;99.90
4896;DHT22;2463;49.948;8.472;2024-02-26T06:29:24;7.30;99.90
4896;DHT22;2463;49.948;8.472;2024-02-26T06:31:51;7.30;99.90
4896;DHT22;2463;49.948;8.472;2024-02-26T06:34:18;7.30;99.90
4896;DHT22;2463;49.948;8.472;2024-02-26T06:36:44;7.30;99.90
4896;DHT22;2463;49.948;8.472;2024-02-26T06:39:11;7.30;99.90
4896;DHT22;2463;49.948;8.472;2024-02-26T06:41:39;7.40;99.90
4896;DHT22;2463;49.948;8.472;2024-02-26T06:44:05;7.50;99.90
4896;DHT22;2463;49.948;8.472;2024-02-26T06:46:32;7.40;99.90
4896;DHT22;2463;49.948;8.472;2024-02-26T06:48:59;7.40;99.90
4896;DHT22;2463;49.948;8.472;2024-02-26T06:51:26;7.40;99.90
4896;DHT22;2463;49.948;8.472;2024-02-26T06:53:52;7.40;99.90
4896;DHT22;2463;49.948;8.472;2024-02-26T06:56:19;7.40;99.90
4896;DHT22;2463;49.948;8.472;2024-02-26T06:58:46;7.30;99.90
4896;DHT22;2463;49.948;8.472;2024-02-26T07:01:13;7.30;99.90
4896;DHT22;2463;49.948;8.472;2024-02-26T07:03:40;7.40;99.90
4896;DHT22;2463;49.948;8.472;2024-02-26T07:06:08;7.30;99.90
4896;DHT22;2463;49.948;8.472;2024-02-26T07:08:35;7.40;99.90
4896;DHT22;2463;49.948;8.472;2024-02-26T07:11:02;7.40;99.90
4896;DHT22;2463;49.948;8.472;2024-02-26T07:13:28;7.30;99.90
4896;DHT22;2463;49.948;8.472;2024-02-26T07:15:55;7.30;99.90
4896;DHT22;2463;49.948;8.472;2024-02-26T07:18:21;7.30;99.90
4896;DHT22;2463;49.948;8.472;2024-02-26T07:20:48;7.30;99.90
4896;DHT22;2463;49.948;8.472;2024-02-26T07:23:15;8.00;99.90
4896;DHT22;2463;49.948;8.472;2024-02-26T07:25:42;7.40;99.90
4896;DHT22;2463;49.948;8.472;2024-02-26T07:28:14;7.40;99.90
4896;DHT22;2463;49.948;8.472;2024-02-26T07:30:41;7.40;99.90
4896;DHT22;2463;49.948;8.472;2024-02-26T07:33:07;7.50;99.90
4896;DHT22;2463;49.948;8.472;2024-02-26T07:35:34;7.40;99.90
4896;DHT22;2463;49.948;8.472;2024-02-26T07:38:03;7.50;99.90
4896;DHT22;2463;49.948;8.472;2024-02-26T07:40:29;7.60;99.90
4896;DHT22;2463;49.948;8.472;2024-02-26T07:42:56;7.60;99.90
4896;DHT22;2463;49.948;8.472;2024-02-26T07:45:23;7.60;99.90
4896;DHT22;2463;49.948;8.472;2024-02-26T07:47:50;7.70;99.90
4896;DHT22;2463;49.948;8.472;2024-02-26T07:50:18;7.70;99.90
4896;DHT22;2463;49.948;8.472;2024-02-26T07:52:46;7.80;99.90
4896;DHT22;2463;49.948;8.472;2024-02-26T07:55:13;7.80;99.90
4896;DHT22;2463;49.948;8.472;2024-02-26T07:57:42;7.80;99.90
4896;DHT22;2463;49.948;8.472;2024-02-26T08:00:10;7.90;99.90
4896;DHT22;2463;49.948;8.472;2024-02-26T08:02:37;7.90;99.90
4896;DHT22;2463;49.948;8.472;2024-02-26T08:05:04;8.00;99.90
4896;DHT22;2463;49.948;8.472;2024-02-26T08:07:31;8.10;99.90
4896;DHT22;2463;49.948;8.472;2024-02-26T08:09:58;8.10;99.90
4896;DHT22;2463;49.948;8.472;2024-02-26T08:12:24;8.20;99.90
4896;DHT22;2463;49.948;8.472;2024-02-26T08:14:51;8.30;99.90
4896;DHT22;2463;49.948;8.472;2024-02-26T08:17:18;8.30;99.90
4896;DHT22;2463;49.948;8.472;2024-02-26T08:19:44;8.40;99.90
4896;DHT22;2463;49.948;8.472;2024-02-26T08:22:11;8.40;99.90
4896;DHT22;2463;49.948;8.472;2024-02-26T08:24:42;8.50;99.90
4896;DHT22;2463;49.948;8.472;2024-02-26T08:27:09;8.60;99.90
4896;DHT22;2463;49.948;8.472;2024-02-26T08:29:36;8.60;99.90
4896;DHT22;2463;49.948;8.472;2024-02-26T08:32:02;8.70;99.90
4896;DHT22;2463;49.948;8.472;2024-02-26T08:34:29;8.70;99.90
4896;DHT22;2463;49.948;8.472;2024-02-26T08:36:56;8.70;99.90
4896;DHT22;2463;49.948;8.472;2024-02-26T08:39:23;8.70;99.90
4896;DHT22;2463;49.948;8.472;2024-02-26T08:41:49;8.70;99.90
4896;DHT22;2463;49.948;8.472;2024-02-26T08:44:16;8.80;99.90
4896;DHT22;2463;49.948;8.472;2024-02-26T08:46:43;8.70;99.90
4896;DHT22;2463;49.948;8.472;2024-02-26T08:49:09;8.70;99.90
4896;DHT22;2463;49.948;8.472;2024-02-26T08:51:41;8.70;99.90
4896;DHT22;2463;49.948;8.472;2024-02-26T08:54:09;8.60;99.90
4896;DHT22;2463;49.948;8.472;2024-02-26T08:56:36;8.60;99.90
4896;DHT22;2463;49.948;8.472;2024-02-26T08:59:02;8.70;99.90
4896;DHT22;2463;49.948;8.472;2024-02-26T09:01:33;8.80;99.90
4896;DHT22;2463;49.948;8.472;2024-02-26T09:04:00;8.90;99.90
4896;DHT22;2463;49.948;8.472;2024-02-26T09:06:27;9.10;99.90
4896;DHT22;2463;49.948;8.472;2024-02-26T09:08:54;9.10;99.90
4896;DHT22;2463;49.948;8.472;2024-02-26T09:11:24;9.30;99.90
4896;DHT22;2463;49.948;8.472;2024-02-26T09:13:51;9.40;99.90
4896;DHT22;2463;49.948;8.472;2024-02-26T09:16:17;9.50;99.90
4896;DHT22;2463;49.948;8.472;2024-02-26T09:18:44;9.50;99.90
4896;DHT22;2463;49.948;8.472;2024-02-26T09:21:11;9.50;99.90
4896;DHT22;2463;49.948;8.472;2024-02-26T09:23:37;9.50;99.90
4896;DHT22;2463;49.948;8.472;2024-02-26T09:26:05;9.50;99.90
4896;DHT22;2463;49.948;8.472;2024-02-26T09:28:33;9.50;99.90
4896;DHT22;2463;49.948;8.472;2024-02-26T09:31:04;9.50;99.90
4896;DHT22;2463;49.948;8.472;2024-02-26T09:33:31;9.50;99.90
4896;DHT22;2463;49.948;8.472;2024-02-26T09:35:58;9.60;99.90
4896;DHT22;2463;49.948;8.472;2024-02-26T09:38:27;9.70;99.90
4896;DHT22;2463;49.948;8.472;2024-02-26T09:40:54;9.70;99.90
4896;DHT22;2463;49.948;8.472;2024-02-26T09:43:22;9.70;99.90
4896;DHT22;2463;49.948;8.472;2024-02-26T09:45:53;9.80;99.90
4896;DHT22;2463;49.948;8.472;2024-02-26T09:48:20;9.70;99.90
4896;DHT22;2463;49.948;8.472;2024-02-26T09:50:47;9.70;99.90
4896;DHT22;2463;49.948;8.472;2024-02-26T09:53:13;9.70;99.90
4896;DHT22;2463;49.948;8.472;2024-02-26T09:55:41;9.80;99.90
4896;DHT22;2463;49.948;8.472;2024-02-26T09:58:08;9.80;99.90
4896;DHT22;2463;49.948;8.472;2024-02-26T10:00:37;9.90;99.90
4896;DHT22;2463;49.948;8.472;2024-02-26T10:03:06;10.10;99.90
4896;DHT22;2463;49.948;8.472;2024-02-26T10:05:37;10.10;99.90
4896;DHT22;2463;49.948;8.472;2024-02-26T10:08:04;10.40;99.90
4896;DHT22;2463;49.948;8.472;2024-02-26T10:10:32;10.60;99.90
4896;DHT22;2463;49.948;8.472;2024-02-26T10:13:00;10.90;99.90
4896;DHT22;2463;49.948;8.472;2024-02-26T10:15:26;11.30;99.90
4896;DHT22;2463;49.948;8.472;2024-02-26T10:17:54;11.60;99.90
4896;DHT22;2463;49.948;8.472;2024-02-26T10:20:21;12.00;99.90
4896;DHT22;2463;49.948;8.472;2024-02-26T10:22:50;12.10;99.90
4896;DHT22;2463;49.948;8.472;2024-02-26T10:25:18;12.30;99.90
4896;DHT22;2463;49.948;8.472;2024-02-26T10:27:46;12.30;99.90
4896;DHT22;2463;49.948;8.472;2024-02-26T10:30:20;12.40;99.90
4896;DHT22;2463;49.948;8.472;2024-02-26T10:32:50;12.50;99.90
4896;DHT22;2463;49.948;8.472;2024-02-26T10:35:18;12.80;99.90
4896;DHT22;2463;49.948;8.472;2024-02-26T10:37:47;14.60;99.90
4896;DHT22;2463;49.948;8.472;2024-02-26T10:40:15;13.00;99.90
4896;DHT22;2463;49.948;8.472;2024-02-26T10:42:42;13.00;99.90
4896;DHT22;2463;49.948;8.472;2024-02-26T10:45:10;13.00;99.90
4896;DHT22;2463;49.948;8.472;2024-02-26T10:47:37;13.20;99.90
4896;DHT22;2463;49.948;8.472;2024-02-26T10:50:05;13.50;99.90
4896;DHT22;2463;49.948;8.472;2024-02-26T10:52:34;13.60;99.90
4896;DHT22;2463;49.948;8.472;2024-02-26T10:55:02;13.70;99.90
4896;DHT22;2463;49.948;8.472;2024-02-26T10:57:42;13.90;99.90
4896;DHT22;2463;49.948;8.472;2024-02-26T11:00:14;14.00;99.90
4896;DHT22;2463;49.948;8.472;2024-02-26T11:02:41;14.30;99.90
4896;DHT22;2463;49.948;8.472;2024-02-26T11:05:08;14.90;99.90
4896;DHT22;2463;49.948;8.472;2024-02-26T11:07:35;15.30;99.90
4896;DHT22;2463;49.948;8.472;2024-02-26T11:10:04;15.90;99.90
4896;DHT22;2463;49.948;8.472;2024-02-26T11:12:32;16.60;99.90
4896;DHT22;2463;49.948;8.472;2024-02-26T11:15:00;17.80;99.90
4896;DHT22;2463;49.948;8.472;2024-02-26T11:17:28;18.40;99.90
4896;DHT22;2463;49.948;8.472;2024-02-26T11:19:59;18.20;99.90
4896;DHT22;2463;49.948;8.472;2024-02-26T11:22:26;17.90;99.90
4896;DHT22;2463;49.948;8.472;2024-02-26T11:24:54;17.50;99.90
4896;DHT22;2463;49.948;8.472;2024-02-26T11:27:24;17.00;99.90
4896;DHT22;2463;49.948;8.472;2024-02-26T11:29:54;16.70;99.90
4896;DHT22;2463;49.948;8.472;2024-02-26T11:32:21;16.40;99.90
4896;DHT22;2463;49.948;8.472;2024-02-26T11:34:47;16.10;99.90
4896;DHT22;2463;49.948;8.472;2024-02-26T11:37:16;16.00;99.90
4896;DHT22;2463;49.948;8.472;2024-02-26T11:39:45;16.00;99.90
4896;DHT22;2463;49.948;8.472;2024-02-26T11:42:14;16.20;99.90
4896;DHT22;2463;49.948;8.472;2024-02-26T11:44:41;16.40;99.90
4896;DHT22;2463;49.948;8.472;2024-02-26T11:47:12;16.90;99.90
4896;DHT22;2463;49.948;8.472;2024-02-26T11:49:39;17.30;99.90
4896;DHT22;2463;49.948;8.472;2024-02-26T11:52:08;17.70;99.90
4896;DHT22;2463;49.948;8.472;2024-02-26T11:54:47;18.50;99.90
4896;DHT22;2463;49.948;8.472;2024-02-26T11:57:30;19.10;99.90
4896;DHT22;2463;49.948;8.472;2024-02-26T12:00:13;19.10;99.90
4896;DHT22;2463;49.948;8.472;2024-02-26T12:05:17;18.10;99.90
4896;DHT22;2463;49.948;8.472;2024-02-26T12:08:09;17.70;99.90
4896;DHT22;2463;49.948;8.472;2024-02-26T12:10:36;17.40;99.90
4896;DHT22;2463;49.948;8.472;2024-02-26T12:13:16;17.20;99.90
4896;DHT22;2463;49.948;8.472;2024-02-26T12:15:55;17.00;99.90
4896;DHT22;2463;49.948;8.472;2024-02-26T12:18:22;16.60;99.90
4896;DHT22;2463;49.948;8.472;2024-02-26T12:20:59;16.40;99.90
4896;DHT22;2463;49.948;8.472;2024-02-26T12:23:27;16.10;99.90
4896;DHT22;2463;49.948;8.472;2024-02-26T12:26:01;15.90;99.90
4896;DHT22;2463;49.948;8.472;2024-02-26T12:28:32;15.70;99.90
4896;DHT22;2463;49.948;8.472;2024-02-26T12:30:59;15.20;99.90
4896;DHT22;2463;49.948;8.472;2024-02-26T12:33:26;15.00;99.90
4896;DHT22;2463;49.948;8.472;2024-02-26T12:35:54;14.90;99.90
4896;DHT22;2463;49.948;8.472;2024-02-26T12:38:20;14.80;99.90
4896;DHT22;2463;49.948;8.472;2024-02-26T12:40:47;14.80;99.90
4896;DHT22;2463;49.948;8.472;2024-02-26T12:43:15;14.80;99.90
4896;DHT22;2463;49.948;8.472;2024-02-26T12:45:43;14.80;99.90
4896;DHT22;2463;49.948;8.472;2024-02-26T12:48:14;14.80;99.90
4896;DHT22;2463;49.948;8.472;2024-02-26T12:50:45;14.80;99.90
4896;DHT22;2463;49.948;8.472;2024-02-26T12:53:13;14.80;99.90
4896;DHT22;2463;49.948;8.472;2024-02-26T12:55:40;14.90;99.90
4896;DHT22;2463;49.948;8.472;2024-02-26T12:58:08;15.20;99.90
4896;DHT22;2463;49.948;8.472;2024-02-26T13:00:35;15.60;99.90
4896;DHT22;2463;49.948;8.472;2024-02-26T13:03:03;16.00;99.90
4896;DHT22;2463;49.948;8.472;2024-02-26T13:05:30;16.50;99.90
4896;DHT22;2463;49.948;8.472;2024-02-26T13:07:57;17.00;99.90
4896;DHT22;2463;49.948;8.472;2024-02-26T13:10:24;18.10;99.90
4896;DHT22;2463;49.948;8.472;2024-02-26T13:12:52;19.40;99.90
4896;DHT22;2463;49.948;8.472;2024-02-26T13:15:20;20.40;99.90
4896;DHT22;2463;49.948;8.472;2024-02-26T13:17:48;21.10;99.90
4896;DHT22;2463;49.948;8.472;2024-02-26T13:20:30;21.30;99.90
4896;DHT22;2463;49.948;8.472;2024-02-26T13:23:05;20.70;99.90
4896;DHT22;2463;49.948;8.472;2024-02-26T13:25:33;20.40;99.90
4896;DHT22;2463;49.948;8.472;2024-02-26T13:28:16;20.40;99.90
4896;DHT22;2463;49.948;8.472;2024-02-26T13:31:02;20.70;99.90
4896;DHT22;2463;49.948;8.472;2024-02-26T13:33:31;20.80;99.90
4896;DHT22;2463;49.948;8.472;2024-02-26T13:35:59;20.90;99.90
4896;DHT22;2463;49.948;8.472;2024-02-26T13:38:27;20.70;99.90
4896;DHT22;2463;49.948;8.472;2024-02-26T13:40:54;20.40;99.90
4896;DHT22;2463;49.948;8.472;2024-02-26T13:43:21;19.90;99.90
4896;DHT22;2463;49.948;8.472;2024-02-26T13:45:48;19.30;99.90
4896;DHT22;2463;49.948;8.472;2024-02-26T13:48:15;18.60;99.90
4896;DHT22;2463;49.948;8.472;2024-02-26T13:50:42;18.10;99.90
4896;DHT22;2463;49.948;8.472;2024-02-26T13:53:09;18.00;99.90
4896;DHT22;2463;49.948;8.472;2024-02-26T13:55:36;18.20;99.90
4896;DHT22;2463;49.948;8.472;2024-02-26T13:58:03;18.20;99.90
4896;DHT22;2463;49.948;8.472;2024-02-26T14:00:30;18.10;99.90
4896;DHT22;2463;49.948;8.472;2024-02-26T14:03:01;18.20;99.90
4896;DHT22;2463;49.948;8.472;2024-02-26T14:05:29;18.40;99.90
4896;DHT22;2463;49.948;8.472;2024-02-26T14:07:56;18.60;99.90
4896;DHT22;2463;49.948;8.472;2024-02-26T14:10:24;19.00;99.90
4896;DHT22;2463;49.948;8.472;2024-02-26T14:12:50;19.70;99.90
4896;DHT22;2463;49.948;8.472;2024-02-26T14:15:17;19.70;99.90
4896;DHT22;2463;49.948;8.472;2024-02-26T14:17:44;19.20;99.90
4896;DHT22;2463;49.948;8.472;2024-02-26T14:20:12;18.50;99.90
4896;DHT22;2463;49.948;8.472;2024-02-26T14:22:39;17.80;99.90
4896;DHT22;2463;49.948;8.472;2024-02-26T14:25:06;17.30;99.90
4896;DHT22;2463;49.948;8.472;2024-02-26T14:27:35;16.90;99.90
4896;DHT22;2463;49.948;8.472;2024-02-26T14:30:02;16.40;99.90
4896;DHT22;2463;49.948;8.472;2024-02-26T14:32:29;16.00;99.90
4896;DHT22;2463;49.948;8.472;2024-02-26T14:34:57;15.50;99.90
4896;DHT22;2463;49.948;8.472;2024-02-26T14:37:24;15.20;99.90
4896;DHT22;2463;49.948;8.472;2024-02-26T14:39:51;14.90;99.90
4896;DHT22;2463;49.948;8.472;2024-02-26T14:42:19;14.90;99.90
4896;DHT22;2463;49.948;8.472;2024-02-26T14:44:45;14.80;99.90
4896;DHT22;2463;49.948;8.472;2024-02-26T14:47:14;14.70;99.90
4896;DHT22;2463;49.948;8.472;2024-02-26T14:49:41;14.60;99.90
4896;DHT22;2463;49.948;8.472;2024-02-26T14:52:08;14.50;99.90
4896;DHT22;2463;49.948;8.472;2024-02-26T14:54:36;14.40;99.90
4896;DHT22;2463;49.948;8.472;2024-02-26T14:57:06;14.50;99.90
4896;DHT22;2463;49.948;8.472;2024-02-26T14:59:33;14.50;99.90
4896;DHT22;2463;49.948;8.472;2024-02-26T15:02:00;14.50;99.90
4896;DHT22;2463;49.948;8.472;2024-02-26T15:04:27;14.50;99.90
4896;DHT22;2463;49.948;8.472;2024-02-26T15:06:53;14.50;99.90
4896;DHT22;2463;49.948;8.472;2024-02-26T15:09:21;14.40;99.90
4896;DHT22;2463;49.948;8.472;2024-02-26T15:11:47;14.30;99.90
4896;DHT22;2463;49.948;8.472;2024-02-26T15:14:14;14.10;99.90
4896;DHT22;2463;49.948;8.472;2024-02-26T15:16:41;13.80;99.90
4896;DHT22;2463;49.948;8.472;2024-02-26T15:19:08;13.70;99.90
4896;DHT22;2463;49.948;8.472;2024-02-26T15:21:44;13.60;99.90
4896;DHT22;2463;49.948;8.472;2024-02-26T15:24:11;13.70;99.90
4896;DHT22;2463;49.948;8.472;2024-02-26T15:26:38;13.70;99.90
4896;DHT22;2463;49.948;8.472;2024-02-26T15:29:06;13.70;99.90
4896;DHT22;2463;49.948;8.472;2024-02-26T15:31:35;13.80;99.90
4896;DHT22;2463;49.948;8.472;2024-02-26T15:34:03;13.90;99.90
4896;DHT22;2463;49.948;8.472;2024-02-26T15:36:30;14.00;99.90
4896;DHT22;2463;49.948;8.472;2024-02-26T15:38:57;14.00;99.90
4896;DHT22;2463;49.948;8.472;2024-02-26T15:41:24;14.10;99.90
4896;DHT22;2463;49.948;8.472;2024-02-26T15:43:51;14.20;99.90
4896;DHT22;2463;49.948;8.472;2024-02-26T15:46:17;14.20;99.90
4896;DHT22;2463;49.948;8.472;2024-02-26T15:48:44;14.20;99.90
4896;DHT22;2463;49.948;8.472;2024-02-26T15:51:22;14.20;99.90
4896;DHT22;2463;49.948;8.472;2024-02-26T15:53:49;14.20;99.90
4896;DHT22;2463;49.948;8.472;2024-02-26T15:56:17;14.20;99.90
4896;DHT22;2463;49.948;8.472;2024-02-26T15:58:43;14.20;99.90
4896;DHT22;2463;49.948;8.472;2024-02-26T16:01:10;14.00;99.90
4896;DHT22;2463;49.948;8.472;2024-02-26T16:03:49;13.90;99.90
4896;DHT22;2463;49.948;8.472;2024-02-26T16:06:24;13.80;99.90
4896;DHT22;2463;49.948;8.472;2024-02-26T16:08:53;13.70;99.90
4896;DHT22;2463;49.948;8.472;2024-02-26T16:11:20;13.60;99.90
4896;DHT22;2463;49.948;8.472;2024-02-26T16:13:50;12.00;99.90
4896;DHT22;2463;49.948;8.472;2024-02-26T16:16:21;13.30;99.90
4896;DHT22;2463;49.948;8.472;2024-02-26T16:18:51;13.20;99.90